Barnstable Municipal Boardman Polando Field Hyannis US
ICAO: KHYA
IATA: HYA
Category: Medium
Scheduled Services: Yes

Elevation: 54 ft
TransAlt. 18000 ft.

Airport Communications:
CAPE APP/DEP:118.2
ATIS:123.8
CLNC DEL:125.15
CTAF:119.5
GND:121.9
BRIDGEPORT RDO:126.425
HYANNIS TWR:119.5
UNICOM:122.95

KHYA Zoom In..

If you have problems with the map follow the link
https://www.worldairports.se/pages/airport.php?
ICAO=KHYA

Runways:

(A) RW 06 length 5425 ft width 150 ft
---- / hdg 66

(B) RW 15 length 5253 ft width 150 ft
ILS 108.95 / hdg 156

(C) RW 24 length 5425 ft width 150 ft
ILS 109.15 / hdg 246

(D) RW 33 length 5253 ft width 150 ft
---- / hdg 336

Location; KHYA
Day. 16 / Time. 02.56 Zulu
* Altimeter: 30.22
* Temperature: 01° c. 33.8°f.
* Wind from: 110° Speed 06 kn with Gusts up to 16 kn.
Dewpoint: 00° c.
Visibility: 1 Statute Miles.
Clouds: Overcast 600 ft.
Conditions: Light Snow.Conditions: Mist.

KHYA 160256Z 11006G16KT 1SM -SN BR OVC006 01/00 A3022 RMK AO2 SLP234 P0013 60029 T00110000 58043


Wind From 110°
Speed 06 kn.

 
 
jpsmedia.com for Web Design worldairports.se 2018   terms of use